createdAt,value
2019-03-23T00:01:42.155Z,99.90
2019-03-23T00:04:08.219Z,99.90
2019-03-23T00:06:34.364Z,99.90
2019-03-23T00:09:00.584Z,99.90
2019-03-23T00:11:26.676Z,99.90
2019-03-23T00:13:52.816Z,99.90
2019-03-23T00:16:19.091Z,99.90
2019-03-23T00:18:45.283Z,99.90
2019-03-23T00:21:11.394Z,99.90
2019-03-23T00:23:37.620Z,99.90
2019-03-23T00:26:03.746Z,99.90
2019-03-23T00:28:29.972Z,99.90
2019-03-23T00:30:56.100Z,99.90
2019-03-23T00:33:22.239Z,99.90
2019-03-23T00:35:48.563Z,99.90
2019-03-23T00:38:14.713Z,99.90
2019-03-23T00:40:40.791Z,99.90
2019-03-23T00:43:06.935Z,99.90
2019-03-23T00:45:33.231Z,99.90
2019-03-23T00:47:59.391Z,99.90
2019-03-23T00:50:25.646Z,99.90
2019-03-23T00:52:51.848Z,99.90
2019-03-23T00:55:17.959Z,99.90
2019-03-23T00:57:44.181Z,99.90
2019-03-23T01:00:11.729Z,99.90
2019-03-23T01:02:37.802Z,99.90
2019-03-23T01:05:06.344Z,99.90
2019-03-23T01:07:32.535Z,99.90
2019-03-23T01:09:58.602Z,99.90
2019-03-23T01:12:24.686Z,99.90
2019-03-23T01:14:50.880Z,99.90
2019-03-23T01:17:17.025Z,99.90
2019-03-23T01:19:43.226Z,99.90
2019-03-23T01:22:09.324Z,99.90
2019-03-23T01:24:35.449Z,99.90
2019-03-23T01:27:01.642Z,99.90
2019-03-23T01:29:27.749Z,99.90
2019-03-23T01:31:53.893Z,99.90
2019-03-23T01:34:19.976Z,99.90
2019-03-23T01:36:46.132Z,99.90
2019-03-23T01:39:12.252Z,99.90
2019-03-23T01:41:38.429Z,99.90
2019-03-23T01:44:04.582Z,99.90
2019-03-23T01:46:30.675Z,99.90
2019-03-23T01:48:56.776Z,99.90
2019-03-23T01:51:22.926Z,99.90
2019-03-23T01:53:49.151Z,99.90
2019-03-23T01:56:15.378Z,99.90
2019-03-23T01:58:41.620Z,99.90
2019-03-23T02:01:07.731Z,99.90
2019-03-23T02:03:33.869Z,99.90
2019-03-23T02:06:00.098Z,99.90
2019-03-23T02:08:26.162Z,99.90
2019-03-23T02:10:52.248Z,99.90
2019-03-23T02:13:20.900Z,99.90
2019-03-23T02:15:47.118Z,99.90
2019-03-23T02:18:13.199Z,99.90
2019-03-23T02:20:39.335Z,99.90
2019-03-23T02:23:05.402Z,99.90
2019-03-23T02:25:31.560Z,99.90
2019-03-23T02:27:57.689Z,99.90
2019-03-23T02:30:23.903Z,99.90
2019-03-23T02:32:50.142Z,99.90
2019-03-23T02:35:16.230Z,99.90
2019-03-23T02:37:42.323Z,99.90
2019-03-23T02:40:09.266Z,99.90
2019-03-23T02:42:35.516Z,99.90
2019-03-23T02:45:02.998Z,99.90
2019-03-23T02:47:29.178Z,99.90
2019-03-23T02:49:55.368Z,99.90
2019-03-23T02:52:21.473Z,99.90
2019-03-23T02:54:47.592Z,99.90
2019-03-23T02:57:13.758Z,99.90
2019-03-23T02:59:39.925Z,99.90
2019-03-23T03:02:06.139Z,99.90
2019-03-23T03:04:32.383Z,99.90
2019-03-23T03:06:58.539Z,99.90
2019-03-23T03:09:24.722Z,99.90
2019-03-23T03:11:50.936Z,99.90
2019-03-23T03:14:17.081Z,99.90
2019-03-23T03:16:43.272Z,99.90
2019-03-23T03:19:09.490Z,99.90
2019-03-23T03:21:35.566Z,99.90
2019-03-23T03:24:01.700Z,99.90
2019-03-23T03:26:27.792Z,99.90
2019-03-23T03:28:53.878Z,99.90
2019-03-23T03:31:19.986Z,99.90
2019-03-23T03:33:46.153Z,99.90
2019-03-23T03:36:12.238Z,99.90
2019-03-23T03:38:38.350Z,99.90
2019-03-23T03:41:04.603Z,99.90
2019-03-23T03:43:30.774Z,99.90
2019-03-23T03:45:56.918Z,99.90
2019-03-23T03:48:22.982Z,99.90
2019-03-23T03:50:49.228Z,99.90
2019-03-23T03:53:15.512Z,99.90
2019-03-23T03:55:41.619Z,99.90
2019-03-23T03:58:07.722Z,99.90
2019-03-23T04:00:34.031Z,99.90
2019-03-23T04:03:00.208Z,99.90
2019-03-23T04:05:26.408Z,99.90
2019-03-23T04:07:52.602Z,99.90
2019-03-23T04:10:18.803Z,99.90
2019-03-23T04:12:44.914Z,99.90
2019-03-23T04:15:11.655Z,99.90
2019-03-23T04:17:38.015Z,99.90
2019-03-23T04:20:05.803Z,99.90
2019-03-23T04:22:37.418Z,99.90
2019-03-23T04:25:05.625Z,99.90
2019-03-23T04:27:31.822Z,99.90
2019-03-23T04:29:57.953Z,99.90
2019-03-23T04:32:24.131Z,99.90
2019-03-23T04:34:50.220Z,99.90
2019-03-23T04:37:16.304Z,99.90
2019-03-23T04:39:42.395Z,99.90
2019-03-23T04:42:08.528Z,99.90
2019-03-23T04:44:34.761Z,99.90
2019-03-23T04:47:00.913Z,99.90
2019-03-23T04:49:26.999Z,99.90
2019-03-23T04:51:53.130Z,99.90
2019-03-23T04:54:19.291Z,99.90
2019-03-23T04:56:45.475Z,99.90
2019-03-23T04:59:11.610Z,99.90
2019-03-23T05:01:37.747Z,99.90
2019-03-23T05:04:03.918Z,99.90
2019-03-23T05:06:30.025Z,99.90
2019-03-23T05:08:56.166Z,99.90
2019-03-23T05:11:22.384Z,99.90
2019-03-23T05:13:48.616Z,99.90
2019-03-23T05:16:14.746Z,99.90
2019-03-23T05:18:40.856Z,99.90
2019-03-23T05:21:07.171Z,99.90
2019-03-23T05:23:33.290Z,99.90
2019-03-23T05:25:59.394Z,99.90
2019-03-23T05:28:25.503Z,99.90
2019-03-23T05:30:51.629Z,99.90
2019-03-23T05:33:17.726Z,99.90
2019-03-23T05:35:43.901Z,99.90
2019-03-23T05:38:09.995Z,99.90
2019-03-23T05:40:36.098Z,99.90
2019-03-23T05:43:02.302Z,99.90
2019-03-23T05:45:28.386Z,99.90
2019-03-23T05:47:54.563Z,99.90
2019-03-23T05:50:20.791Z,99.90
2019-03-23T05:52:46.926Z,99.90
2019-03-23T05:55:13.096Z,99.90
2019-03-23T05:57:39.234Z,99.90
2019-03-23T06:00:07.260Z,99.90
2019-03-23T06:02:33.334Z,99.90
2019-03-23T06:04:59.465Z,99.90
2019-03-23T06:07:25.568Z,99.90
2019-03-23T06:09:51.713Z,99.90
2019-03-23T06:12:17.841Z,99.90
2019-03-23T06:14:44.274Z,99.90
2019-03-23T06:17:10.336Z,99.90
2019-03-23T06:19:36.454Z,99.90
2019-03-23T06:22:02.735Z,99.90
2019-03-23T06:24:28.832Z,99.90
2019-03-23T06:26:54.912Z,99.90
2019-03-23T06:29:21.070Z,99.90
2019-03-23T06:31:47.284Z,99.90
2019-03-23T06:34:13.616Z,99.90
2019-03-23T06:36:39.782Z,99.90
2019-03-23T06:39:06.071Z,99.90
2019-03-23T06:41:32.176Z,99.90
2019-03-23T06:43:58.321Z,99.90
2019-03-23T06:46:24.410Z,99.90
2019-03-23T06:48:50.528Z,99.90
2019-03-23T06:51:16.613Z,99.90
2019-03-23T06:53:42.854Z,99.90
2019-03-23T06:56:08.983Z,99.90
2019-03-23T06:58:35.064Z,99.90
2019-03-23T07:01:01.229Z,99.90
2019-03-23T07:03:27.498Z,99.90
2019-03-23T07:05:53.594Z,99.90
2019-03-23T07:08:19.784Z,99.90
2019-03-23T07:10:45.910Z,99.90
2019-03-23T07:13:12.003Z,99.90
2019-03-23T07:15:38.132Z,99.90
2019-03-23T07:18:04.216Z,99.90
2019-03-23T07:20:30.311Z,99.90
2019-03-23T07:22:56.447Z,99.90
2019-03-23T07:25:22.634Z,99.90
2019-03-23T07:27:48.772Z,99.90
2019-03-23T07:30:16.530Z,99.90
2019-03-23T07:32:42.593Z,99.90
2019-03-23T07:35:10.735Z,99.90
2019-03-23T07:37:36.807Z,99.90
2019-03-23T07:40:05.622Z,99.90
2019-03-23T07:42:31.974Z,99.90
2019-03-23T07:44:58.243Z,99.90
2019-03-23T07:47:24.420Z,99.90
2019-03-23T07:52:46.943Z,99.90
2019-03-23T07:55:14.498Z,99.90
2019-03-23T07:57:41.215Z,99.90
2019-03-23T08:00:10.689Z,99.90
2019-03-23T08:02:36.777Z,99.90
2019-03-23T08:05:06.012Z,99.90
2019-03-23T08:07:32.245Z,99.90
2019-03-23T08:09:58.332Z,99.90
2019-03-23T08:12:24.467Z,99.90
2019-03-23T08:14:50.590Z,99.90
2019-03-23T08:17:16.913Z,99.90
2019-03-23T08:19:43.159Z,99.90
2019-03-23T08:22:11.183Z,99.90
2019-03-23T08:24:37.426Z,99.90
2019-03-23T08:27:03.569Z,99.90
2019-03-23T08:29:29.648Z,99.90
2019-03-23T08:31:55.761Z,99.90
2019-03-23T08:34:21.901Z,99.90
2019-03-23T08:36:48.001Z,99.90
2019-03-23T08:39:14.063Z,99.90
2019-03-23T08:41:40.178Z,99.90
2019-03-23T08:44:06.309Z,99.90
2019-03-23T08:46:32.421Z,99.90
2019-03-23T08:48:58.563Z,99.90
2019-03-23T08:51:24.709Z,99.90
2019-03-23T08:53:50.873Z,99.90
2019-03-23T08:56:17.051Z,99.90
2019-03-23T08:58:42.931Z,99.90
2019-03-23T09:01:09.011Z,99.90
2019-03-23T09:03:35.127Z,99.90
2019-03-23T09:06:01.213Z,99.90
2019-03-23T09:08:27.319Z,99.90
2019-03-23T09:10:53.457Z,99.90
2019-03-23T09:13:19.567Z,99.90
2019-03-23T09:15:45.659Z,99.90
2019-03-23T09:18:11.807Z,99.90
2019-03-23T09:20:37.933Z,99.90
2019-03-23T09:23:04.046Z,99.90
2019-03-23T09:25:30.225Z,99.90
2019-03-23T09:27:56.323Z,99.90
2019-03-23T09:30:22.468Z,99.90
2019-03-23T09:32:48.689Z,99.90
2019-03-23T09:35:15.053Z,99.90
2019-03-23T09:37:41.119Z,99.90
2019-03-23T09:40:10.998Z,99.90
2019-03-23T09:42:35.550Z,99.90
2019-03-23T09:45:03.395Z,99.90
2019-03-23T09:47:29.472Z,99.90
2019-03-23T09:49:55.596Z,99.90
2019-03-23T09:52:21.795Z,99.90
2019-03-23T09:54:47.984Z,99.90
2019-03-23T09:57:14.955Z,99.90
2019-03-23T09:59:41.073Z,99.90
2019-03-23T10:02:07.276Z,99.90
2019-03-23T10:04:33.393Z,99.90
2019-03-23T10:06:59.481Z,99.90
2019-03-23T10:09:25.659Z,99.90
2019-03-23T10:11:51.801Z,99.90
2019-03-23T10:14:18.268Z,99.90
2019-03-23T10:16:44.409Z,99.90
2019-03-23T10:19:10.611Z,99.90
2019-03-23T10:21:36.765Z,99.90
2019-03-23T10:24:03.111Z,99.90
2019-03-23T10:26:29.312Z,99.90
2019-03-23T10:28:55.405Z,99.90
2019-03-23T10:31:21.621Z,99.90
2019-03-23T10:33:47.730Z,99.90
2019-03-23T10:36:13.806Z,99.90
2019-03-23T10:38:39.946Z,99.90
2019-03-23T10:41:06.074Z,99.90
2019-03-23T10:43:32.219Z,99.90
2019-03-23T10:45:58.402Z,99.90
2019-03-23T10:48:24.630Z,99.90
2019-03-23T10:50:50.874Z,99.90
2019-03-23T10:53:23.004Z,99.90
2019-03-23T10:55:45.110Z,99.90
2019-03-23T10:58:11.284Z,99.90
2019-03-23T11:00:37.394Z,99.90
2019-03-23T11:03:03.474Z,99.90
2019-03-23T11:05:29.624Z,99.90
2019-03-23T11:07:55.831Z,99.90
2019-03-23T11:10:21.995Z,99.90
2019-03-23T11:12:48.202Z,99.90
2019-03-23T11:15:14.286Z,99.90
2019-03-23T11:17:40.700Z,99.90
2019-03-23T11:20:09.422Z,99.90
2019-03-23T11:22:35.605Z,99.90
2019-03-23T11:25:04.328Z,99.90
2019-03-23T11:27:30.454Z,99.90
2019-03-23T11:29:56.614Z,99.90
2019-03-23T11:32:22.754Z,99.90
2019-03-23T11:34:48.840Z,99.90
2019-03-23T11:37:15.010Z,99.90
2019-03-23T11:39:41.258Z,99.90
2019-03-23T11:42:07.402Z,99.90
2019-03-23T11:44:33.638Z,99.90
2019-03-23T11:46:59.822Z,99.90
2019-03-23T11:49:25.987Z,99.90
2019-03-23T11:51:52.063Z,99.90
2019-03-23T11:54:18.218Z,99.90
2019-03-23T11:56:44.546Z,99.90
2019-03-23T11:59:11.662Z,99.90
2019-03-23T12:01:37.796Z,99.90
2019-03-23T12:04:03.881Z,99.90
2019-03-23T12:06:30.073Z,99.90
2019-03-23T12:08:56.216Z,99.90
2019-03-23T12:11:22.316Z,99.90
2019-03-23T12:13:48.452Z,99.90
2019-03-23T12:16:14.693Z,99.90
2019-03-23T12:18:40.768Z,99.90
2019-03-23T12:21:06.881Z,99.90
2019-03-23T12:23:32.958Z,99.90
2019-03-23T12:25:59.067Z,99.90
2019-03-23T12:28:25.210Z,99.90
2019-03-23T12:30:51.308Z,99.90
2019-03-23T12:33:17.400Z,99.90
2019-03-23T12:35:43.563Z,99.90
2019-03-23T12:38:10.023Z,99.60
2019-03-23T12:40:36.538Z,99.40
2019-03-23T12:43:02.919Z,99.30
2019-03-23T12:45:29.085Z,98.40
2019-03-23T12:47:55.259Z,99.20
2019-03-23T12:50:21.466Z,99.90
2019-03-23T12:52:47.622Z,98.60
2019-03-23T12:55:13.821Z,98.00
2019-03-23T12:57:39.931Z,98.20
2019-03-23T13:00:11.802Z,98.90
2019-03-23T13:02:37.940Z,99.80
2019-03-23T13:05:05.522Z,99.20
2019-03-23T13:07:31.639Z,97.60
2019-03-23T13:09:57.729Z,97.10
2019-03-23T13:12:23.832Z,97.20
2019-03-23T13:14:50.025Z,97.90
2019-03-23T13:17:16.144Z,95.20
2019-03-23T13:19:42.317Z,97.60
2019-03-23T13:22:08.504Z,96.60
2019-03-23T13:24:34.665Z,96.70
2019-03-23T13:27:00.844Z,96.40
2019-03-23T13:29:26.952Z,94.90
2019-03-23T13:31:53.047Z,95.30
2019-03-23T13:34:19.176Z,96.50
2019-03-23T13:36:45.341Z,96.20
2019-03-23T13:39:11.677Z,95.30
2019-03-23T13:41:48.069Z,95.00
2019-03-23T13:44:14.205Z,93.80
2019-03-23T13:46:40.282Z,92.70
2019-03-23T13:49:06.439Z,94.20
2019-03-23T13:51:32.632Z,94.70
2019-03-23T13:53:58.783Z,94.50
2019-03-23T13:56:24.909Z,93.40
2019-03-23T13:58:51.088Z,94.90
2019-03-23T14:01:17.310Z,93.50
2019-03-23T14:03:43.429Z,95.10
2019-03-23T14:06:09.675Z,94.20
2019-03-23T14:08:35.795Z,93.90
2019-03-23T14:11:02.023Z,94.00
2019-03-23T14:13:28.186Z,92.50
2019-03-23T14:15:54.434Z,93.50
2019-03-23T14:18:20.629Z,93.00
2019-03-23T14:20:46.863Z,91.80
2019-03-23T14:23:13.081Z,92.30
2019-03-23T14:25:39.287Z,92.20
2019-03-23T14:28:05.462Z,91.70
2019-03-23T14:30:31.730Z,92.10
2019-03-23T14:32:57.850Z,90.80
2019-03-23T14:35:23.985Z,90.20
2019-03-23T14:37:50.196Z,91.30
2019-03-23T14:40:16.309Z,91.10
2019-03-23T14:42:42.458Z,90.90
2019-03-23T14:45:09.242Z,90.30
2019-03-23T14:47:35.373Z,89.80
2019-03-23T14:50:01.576Z,87.00
2019-03-23T14:52:27.682Z,84.20
2019-03-23T14:54:53.815Z,84.50
2019-03-23T14:57:19.909Z,83.30
2019-03-23T14:59:46.029Z,80.60
2019-03-23T15:02:12.289Z,78.20
2019-03-23T15:04:38.512Z,79.80
2019-03-23T15:07:04.698Z,77.70
2019-03-23T15:09:30.815Z,80.40
2019-03-23T15:11:57.018Z,79.50
2019-03-23T15:14:23.230Z,82.00
2019-03-23T15:16:49.454Z,83.90
2019-03-23T15:19:15.882Z,85.60
2019-03-23T15:21:42.324Z,86.30
2019-03-23T15:24:08.482Z,86.60
2019-03-23T15:26:34.672Z,87.40
2019-03-23T15:29:00.831Z,87.00
2019-03-23T15:31:27.048Z,88.90
2019-03-23T15:33:53.224Z,88.00
2019-03-23T15:36:19.298Z,89.30
2019-03-23T15:38:45.386Z,90.20
2019-03-23T15:41:11.478Z,90.00
2019-03-23T15:43:37.590Z,90.00
2019-03-23T15:46:03.783Z,89.60
2019-03-23T15:48:29.842Z,90.50
2019-03-23T15:50:56.048Z,91.40
2019-03-23T15:53:22.221Z,91.20
2019-03-23T15:55:48.348Z,90.80
2019-03-23T15:58:14.446Z,90.90
2019-03-23T16:00:40.682Z,91.30
2019-03-23T16:03:06.911Z,91.40
2019-03-23T16:05:33.250Z,91.40
2019-03-23T16:07:59.475Z,90.80
2019-03-23T16:10:25.622Z,91.30
2019-03-23T16:12:51.787Z,92.30
2019-03-23T16:15:17.964Z,92.40
2019-03-23T16:17:44.118Z,93.30
2019-03-23T16:20:12.751Z,92.90
2019-03-23T16:22:39.060Z,92.80
2019-03-23T16:25:07.633Z,93.30
2019-03-23T16:27:33.874Z,94.10
2019-03-23T16:29:59.945Z,94.80
2019-03-23T16:32:26.166Z,95.50
2019-03-23T16:34:52.294Z,96.80
2019-03-23T16:37:18.358Z,97.50
2019-03-23T16:39:44.470Z,98.30
2019-03-23T16:42:10.584Z,98.20
2019-03-23T16:44:36.671Z,98.70
2019-03-23T16:47:02.906Z,99.60
2019-03-23T16:49:29.200Z,99.90
2019-03-23T16:51:55.318Z,99.90
2019-03-23T16:54:21.556Z,99.90
2019-03-23T16:56:47.777Z,99.90
2019-03-23T16:59:13.993Z,99.90
2019-03-23T17:01:40.232Z,99.90
2019-03-23T17:04:06.420Z,99.90
2019-03-23T17:06:32.706Z,99.90
2019-03-23T17:08:58.867Z,99.90
2019-03-23T17:11:24.963Z,99.90
2019-03-23T17:13:51.112Z,99.90
2019-03-23T17:16:17.334Z,99.90
2019-03-23T17:18:43.568Z,99.90
2019-03-23T17:21:09.745Z,99.90
2019-03-23T17:23:35.892Z,99.90
2019-03-23T17:26:02.093Z,99.90
2019-03-23T17:28:28.242Z,99.90
2019-03-23T17:30:54.456Z,99.90
2019-03-23T17:33:20.596Z,99.90
2019-03-23T17:35:46.822Z,99.90
2019-03-23T17:38:15.134Z,99.90
2019-03-23T17:40:41.027Z,99.90
2019-03-23T17:43:07.247Z,99.90
2019-03-23T17:45:33.401Z,99.90
2019-03-23T17:47:59.569Z,99.90
2019-03-23T17:50:25.686Z,99.90
2019-03-23T17:52:51.798Z,99.90
2019-03-23T17:55:17.892Z,99.90
2019-03-23T17:57:44.066Z,99.90
2019-03-23T18:00:11.407Z,99.90
2019-03-23T18:02:37.631Z,99.90
2019-03-23T18:05:06.275Z,99.90
2019-03-23T18:07:32.437Z,99.90
2019-03-23T18:09:58.694Z,99.90
2019-03-23T18:12:24.796Z,99.90
2019-03-23T18:14:50.940Z,99.90
2019-03-23T18:17:17.277Z,99.90
2019-03-23T18:19:43.367Z,99.90
2019-03-23T18:22:09.508Z,99.90
2019-03-23T18:24:35.605Z,99.90
2019-03-23T18:27:01.789Z,99.90
2019-03-23T18:29:28.037Z,99.90
2019-03-23T18:31:54.158Z,99.90
2019-03-23T18:34:20.292Z,99.90
2019-03-23T18:36:47.302Z,99.90
2019-03-23T18:39:13.474Z,99.90
2019-03-23T18:41:39.622Z,99.90
2019-03-23T18:44:15.839Z,99.90
2019-03-23T18:46:34.212Z,99.90
2019-03-23T18:49:00.356Z,99.90
2019-03-23T18:51:26.472Z,99.90
2019-03-23T18:53:52.780Z,99.90
2019-03-23T18:56:18.962Z,99.90
2019-03-23T18:58:45.234Z,99.90
2019-03-23T19:01:11.520Z,99.90
2019-03-23T19:03:37.884Z,99.90
2019-03-23T19:06:04.236Z,99.90
2019-03-23T19:08:30.556Z,99.90
2019-03-23T19:10:56.709Z,99.90
2019-03-23T19:13:22.866Z,99.90
2019-03-23T19:15:49.137Z,99.90
2019-03-23T19:18:15.293Z,99.90
2019-03-23T19:20:41.522Z,99.90
2019-03-23T19:23:07.712Z,99.90
2019-03-23T19:25:34.061Z,99.90
2019-03-23T19:28:00.287Z,99.90
2019-03-23T19:30:26.841Z,99.90
2019-03-23T19:32:53.058Z,99.90
2019-03-23T19:35:19.297Z,99.90
2019-03-23T19:37:45.473Z,99.90
2019-03-23T19:40:11.795Z,99.90
2019-03-23T19:42:37.909Z,99.90
2019-03-23T19:45:06.025Z,99.90
2019-03-23T19:47:32.159Z,99.90
2019-03-23T19:49:58.223Z,99.90
2019-03-23T19:52:24.430Z,99.90
2019-03-23T19:54:50.599Z,99.90
2019-03-23T19:57:16.815Z,99.90
2019-03-23T19:59:42.985Z,99.90
2019-03-23T20:02:09.166Z,99.90
2019-03-23T20:04:35.299Z,99.90
2019-03-23T20:07:01.662Z,99.90
2019-03-23T20:09:27.897Z,99.90
2019-03-23T20:11:54.063Z,99.90
2019-03-23T20:14:20.153Z,99.90
2019-03-23T20:16:46.232Z,99.90
2019-03-23T20:19:12.431Z,99.90
2019-03-23T20:21:38.576Z,99.90
2019-03-23T20:24:04.703Z,99.90
2019-03-23T20:26:30.831Z,99.90
2019-03-23T20:28:56.999Z,99.90
2019-03-23T20:31:23.221Z,99.90
2019-03-23T20:33:49.461Z,99.90
2019-03-23T20:36:15.584Z,99.90
2019-03-23T20:38:41.725Z,99.90
2019-03-23T20:41:07.963Z,99.90
2019-03-23T20:43:34.210Z,99.90
2019-03-23T20:46:00.378Z,99.90
2019-03-23T20:48:26.560Z,99.90
2019-03-23T20:50:52.782Z,99.90
2019-03-23T20:53:19.370Z,99.90
2019-03-23T20:55:45.578Z,99.90
2019-03-23T20:58:11.795Z,99.90
2019-03-23T21:00:38.177Z,99.90
2019-03-23T21:03:04.369Z,99.90
2019-03-23T21:05:34.180Z,99.90
2019-03-23T21:07:58.732Z,99.90
2019-03-23T21:10:24.824Z,99.90
2019-03-23T21:12:50.903Z,99.90
2019-03-23T21:15:17.073Z,99.90
2019-03-23T21:17:50.995Z,99.90
2019-03-23T21:20:11.269Z,99.90
2019-03-23T21:22:37.503Z,99.90
2019-03-23T21:25:05.679Z,99.90
2019-03-23T21:27:31.808Z,99.90
2019-03-23T21:29:57.920Z,99.90
2019-03-23T21:32:24.068Z,99.90
2019-03-23T21:34:50.232Z,99.90
2019-03-23T21:37:16.352Z,99.90
2019-03-23T21:39:42.471Z,99.90
2019-03-23T21:42:08.676Z,99.90
2019-03-23T21:44:34.822Z,99.90
2019-03-23T21:47:02.701Z,99.90
2019-03-23T21:49:30.128Z,99.90
2019-03-23T21:51:56.328Z,99.90
2019-03-23T21:54:22.460Z,99.90
2019-03-23T21:56:48.920Z,99.90
2019-03-23T21:59:15.203Z,99.90
2019-03-23T22:01:41.284Z,99.90
2019-03-23T22:04:07.428Z,99.90
2019-03-23T22:06:33.842Z,99.90
2019-03-23T22:09:00.072Z,99.90
2019-03-23T22:11:26.267Z,99.90
2019-03-23T22:13:52.360Z,99.90
2019-03-23T22:16:18.668Z,99.90
2019-03-23T22:18:44.897Z,99.90
2019-03-23T22:21:11.207Z,99.90
2019-03-23T22:23:37.564Z,99.90
2019-03-23T22:26:03.698Z,99.90
2019-03-23T22:28:30.199Z,99.90
2019-03-23T22:30:56.619Z,99.90
2019-03-23T22:33:22.784Z,99.90
2019-03-23T22:35:49.610Z,99.90
2019-03-23T22:38:16.536Z,99.90
2019-03-23T22:40:42.678Z,99.90
2019-03-23T22:43:08.743Z,99.90
2019-03-23T22:45:35.927Z,99.90
2019-03-23T22:48:02.398Z,99.90
2019-03-23T22:50:28.575Z,99.90
2019-03-23T22:52:55.339Z,99.90
2019-03-23T22:55:21.496Z,99.90
2019-03-23T22:57:47.631Z,99.90
2019-03-23T23:00:18.773Z,99.90
2019-03-23T23:02:44.982Z,99.90
2019-03-23T23:05:11.301Z,99.90
2019-03-23T23:07:37.541Z,99.90
2019-03-23T23:10:05.174Z,99.90
2019-03-23T23:12:31.423Z,99.90
2019-03-23T23:15:04.354Z,99.90
2019-03-23T23:17:26.243Z,99.90
2019-03-23T23:19:52.601Z,99.90
2019-03-23T23:22:18.792Z,99.90
2019-03-23T23:24:44.889Z,99.90
2019-03-23T23:27:11.007Z,99.90
2019-03-23T23:29:37.421Z,99.90
2019-03-23T23:32:03.598Z,99.90
2019-03-23T23:34:29.724Z,99.90
2019-03-23T23:36:56.117Z,99.90
2019-03-23T23:39:22.207Z,99.90
2019-03-23T23:41:48.823Z,99.90
2019-03-23T23:44:15.006Z,99.90
2019-03-23T23:46:41.132Z,99.90
2019-03-23T23:49:07.564Z,99.90
2019-03-23T23:51:33.742Z,99.90
2019-03-23T23:53:59.911Z,99.90
2019-03-23T23:56:26.199Z,99.90
2019-03-23T23:58:52.294Z,99.90
